createdAt,value
2018-06-28T00:00:32.762Z,4
2018-06-28T00:01:42.339Z,4
2018-06-28T00:02:52.148Z,4
2018-06-28T00:04:02.224Z,4
2018-06-28T00:05:11.212Z,4
2018-06-28T00:06:21.024Z,4
2018-06-28T00:07:31.155Z,4
2018-06-28T00:08:41.226Z,4
2018-06-28T00:09:51.042Z,4
2018-06-28T00:11:01.117Z,4
2018-06-28T00:12:10.929Z,4
2018-06-28T00:13:20.769Z,4
2018-06-28T00:14:30.310Z,4
2018-06-28T00:15:40.116Z,4
2018-06-28T00:16:50.196Z,0
2018-06-28T00:18:00.268Z,0
2018-06-28T00:19:10.114Z,0
2018-06-28T00:20:19.932Z,0
2018-06-28T00:21:29.729Z,0
2018-06-28T00:22:39.539Z,4
2018-06-28T00:23:49.336Z,4
2018-06-28T00:24:59.455Z,4
2018-06-28T00:26:08.982Z,4
2018-06-28T00:27:19.060Z,4
2018-06-28T00:28:28.579Z,4
2018-06-28T00:29:38.100Z,4
2018-06-28T00:30:47.949Z,4
2018-06-28T00:31:57.744Z,4
2018-06-28T00:33:07.563Z,8
2018-06-28T00:34:17.358Z,4
2018-06-28T00:35:26.882Z,4
2018-06-28T00:36:37.003Z,4
2018-06-28T00:37:46.809Z,4
2018-06-28T00:38:56.630Z,8
2018-06-28T00:40:06.444Z,8
2018-06-28T00:41:16.308Z,8
2018-06-28T00:42:26.424Z,8
2018-06-28T00:43:36.292Z,4
2018-06-28T00:44:46.467Z,8
2018-06-28T00:45:56.549Z,8
2018-06-28T00:47:06.614Z,8
2018-06-28T00:48:16.475Z,12
2018-06-28T00:49:26.296Z,8
2018-06-28T00:50:36.110Z,8
2018-06-28T00:51:46.180Z,12
2018-06-28T00:52:56.247Z,12
2018-06-28T00:54:06.107Z,12
2018-06-28T00:55:16.185Z,12
2018-06-28T00:56:25.981Z,16
2018-06-28T00:57:35.534Z,12
2018-06-28T00:58:44.806Z,16
2018-06-28T00:59:54.641Z,16
2018-06-28T01:01:04.706Z,16
2018-06-28T01:02:14.524Z,20
2018-06-28T01:03:24.312Z,20
2018-06-28T01:04:34.122Z,20
2018-06-28T01:05:43.705Z,20
2018-06-28T01:06:53.807Z,20
2018-06-28T01:08:03.601Z,24
2018-06-28T01:09:13.664Z,24
2018-06-28T01:10:23.196Z,28
2018-06-28T01:11:33.310Z,32
2018-06-28T01:12:42.862Z,32
2018-06-28T01:13:52.937Z,32
2018-06-28T01:15:03.011Z,36
2018-06-28T01:16:12.840Z,40
2018-06-28T01:17:22.993Z,40
2018-06-28T01:18:32.263Z,44
2018-06-28T01:19:42.088Z,44
2018-06-28T01:20:51.620Z,48
2018-06-28T01:22:01.680Z,52
2018-06-28T01:23:11.257Z,56
2018-06-28T01:24:20.798Z,60
2018-06-28T01:25:30.054Z,64
2018-06-28T01:26:39.873Z,68
2018-06-28T01:27:49.942Z,72
2018-06-28T01:29:00.074Z,76
2018-06-28T01:30:09.336Z,80
2018-06-28T01:31:19.402Z,88
2018-06-28T01:32:28.919Z,92
2018-06-28T01:33:38.467Z,96
2018-06-28T01:34:48.324Z,104
2018-06-28T01:35:58.416Z,112
2018-06-28T01:37:08.233Z,120
2018-06-28T01:38:18.043Z,128
2018-06-28T01:39:27.853Z,136
2018-06-28T01:40:37.702Z,140
2018-06-28T01:41:47.833Z,152
2018-06-28T01:42:57.896Z,164
2018-06-28T01:44:07.997Z,168
2018-06-28T01:45:18.099Z,180
2018-06-28T01:46:27.941Z,188
2018-06-28T01:47:37.217Z,200
2018-06-28T01:48:47.001Z,212
2018-06-28T01:49:57.074Z,220
2018-06-28T01:51:06.884Z,232
2018-06-28T01:52:16.745Z,244
2018-06-28T01:53:26.530Z,256
2018-06-28T01:54:36.312Z,268
2018-06-28T01:55:46.384Z,284
2018-06-28T01:56:56.456Z,296
2018-06-28T01:58:06.325Z,312
2018-06-28T01:59:16.397Z,320
2018-06-28T02:00:26.461Z,336
2018-06-28T02:01:36.534Z,352
2018-06-28T02:02:46.056Z,364
2018-06-28T02:03:55.914Z,380
2018-06-28T02:05:05.989Z,400
2018-06-28T02:06:16.073Z,416
2018-06-28T02:07:26.188Z,432
2018-06-28T02:08:36.262Z,452
2018-06-28T02:09:46.097Z,472
2018-06-28T02:10:56.177Z,488
2018-06-28T02:12:05.976Z,508
2018-06-28T02:13:16.052Z,528
2018-06-28T02:14:26.130Z,544
2018-06-28T02:15:35.724Z,568
2018-06-28T02:16:45.252Z,584
2018-06-28T02:17:55.319Z,604
2018-06-28T02:19:05.400Z,624
2018-06-28T02:20:15.461Z,644
2018-06-28T02:21:25.046Z,664
2018-06-28T02:22:35.117Z,684
2018-06-28T02:23:45.216Z,704
2018-06-28T02:24:55.304Z,724
2018-06-28T02:26:05.371Z,744
2018-06-28T02:27:14.686Z,768
2018-06-28T02:28:24.497Z,788
2018-06-28T02:29:34.307Z,808
2018-06-28T02:30:44.396Z,828
2018-06-28T02:31:53.946Z,852
2018-06-28T02:33:04.092Z,872
2018-06-28T02:34:13.898Z,896
2018-06-28T02:35:23.966Z,920
2018-06-28T02:36:33.769Z,944
2018-06-28T02:37:43.583Z,968
2018-06-28T02:38:53.459Z,984
2018-06-28T02:40:02.991Z,1012
2018-06-28T02:41:13.116Z,1032
2018-06-28T02:42:22.922Z,1056
2018-06-28T02:43:32.463Z,1080
2018-06-28T02:44:42.579Z,1104
2018-06-28T02:45:52.365Z,1120
2018-06-28T02:47:02.178Z,1144
2018-06-28T02:48:12.004Z,1168
2018-06-28T02:49:21.799Z,1188
2018-06-28T02:50:31.667Z,1216
2018-06-28T02:51:41.755Z,1244
2018-06-28T02:52:51.568Z,1268
2018-06-28T02:54:01.648Z,1296
2018-06-28T02:55:11.188Z,1324
2018-06-28T02:56:21.329Z,1348
2018-06-28T02:57:31.133Z,1368
2018-06-28T02:58:41.219Z,1388
2018-06-28T02:59:51.311Z,1412
2018-06-28T03:03:39.485Z,1452
2018-06-28T03:04:49.281Z,1464
2018-06-28T03:05:59.347Z,1488
2018-06-28T03:07:08.903Z,1508
2018-06-28T03:08:18.992Z,1540
2018-06-28T03:09:28.843Z,1560
2018-06-28T03:10:38.679Z,1584
2018-06-28T03:11:47.397Z,1604
2018-06-28T03:12:57.469Z,1628
2018-06-28T03:14:07.272Z,1660
2018-06-28T03:15:16.863Z,1688
2018-06-28T03:16:26.682Z,1724
2018-06-28T03:17:36.763Z,1756
2018-06-28T03:18:46.842Z,1788
2018-06-28T03:19:56.927Z,1816
2018-06-28T03:21:07.057Z,1852
2018-06-28T03:22:17.149Z,1896
2018-06-28T03:23:27.199Z,1936
2018-06-28T03:24:37.285Z,1976
2018-06-28T03:25:47.081Z,2036
2018-06-28T03:26:57.212Z,2092
2018-06-28T03:28:07.298Z,2136
2018-06-28T03:29:17.366Z,2184
2018-06-28T03:30:27.433Z,2240
2018-06-28T03:31:37.518Z,2276
2018-06-28T03:32:47.381Z,2320
2018-06-28T03:33:56.925Z,2356
2018-06-28T03:35:06.440Z,2392
2018-06-28T03:36:16.529Z,2416
2018-06-28T03:37:26.609Z,2436
2018-06-28T03:38:36.737Z,2444
2018-06-28T03:39:46.805Z,2464
2018-06-28T03:40:56.878Z,2484
2018-06-28T03:42:06.946Z,2512
2018-06-28T03:43:17.020Z,2528
2018-06-28T03:44:27.128Z,2556
2018-06-28T03:45:37.226Z,2568
2018-06-28T03:46:47.315Z,2580
2018-06-28T03:47:57.118Z,2608
2018-06-28T03:49:06.369Z,2640
2018-06-28T03:50:16.236Z,2660
2018-06-28T03:51:26.314Z,2692
2018-06-28T03:52:36.106Z,2720
2018-06-28T03:53:46.197Z,2756
2018-06-28T03:54:55.993Z,2780
2018-06-28T03:56:05.567Z,2812
2018-06-28T03:57:15.356Z,2840
2018-06-28T03:58:25.229Z,2860
2018-06-28T03:59:34.748Z,2880
2018-06-28T04:00:44.553Z,2916
2018-06-28T04:01:54.726Z,2944
2018-06-28T04:03:04.242Z,2972
2018-06-28T04:04:14.324Z,3008
2018-06-28T04:05:24.393Z,3052
2018-06-28T04:06:34.662Z,3088
2018-06-28T04:07:44.855Z,3160
2018-06-28T04:08:54.959Z,3236
2018-06-28T04:10:04.764Z,3300
2018-06-28T04:11:14.840Z,3340
2018-06-28T04:12:24.642Z,3392
2018-06-28T04:13:34.760Z,3460
2018-06-28T04:14:44.837Z,3552
2018-06-28T04:15:54.914Z,3660
2018-06-28T04:17:04.163Z,3760
2018-06-28T04:18:14.217Z,3876
2018-06-28T04:19:23.522Z,3980
2018-06-28T04:20:33.303Z,4076
2018-06-28T04:21:43.388Z,4140
2018-06-28T04:22:53.186Z,4172
2018-06-28T04:24:02.726Z,4196
2018-06-28T04:25:12.584Z,4220
2018-06-28T04:26:22.385Z,4232
2018-06-28T04:27:32.425Z,4220
2018-06-28T04:28:42.381Z,4192
2018-06-28T04:29:52.457Z,4204
2018-06-28T04:31:02.312Z,4212
2018-06-28T04:32:12.110Z,4200
2018-06-28T04:33:22.570Z,4212
2018-06-28T04:34:32.124Z,4176
2018-06-28T04:35:42.183Z,4116
2018-06-28T04:36:51.758Z,4144
2018-06-28T04:38:01.563Z,4132
2018-06-28T04:39:10.843Z,4132
2018-06-28T04:40:20.380Z,4148
2018-06-28T04:41:30.452Z,4176
2018-06-28T04:42:40.051Z,4180
2018-06-28T04:43:50.121Z,4196
2018-06-28T04:45:00.211Z,4200
2018-06-28T04:46:10.009Z,4216
2018-06-28T04:47:20.089Z,4252
2018-06-28T04:48:30.216Z,4292
2018-06-28T04:49:40.294Z,4340
2018-06-28T04:50:50.399Z,4380
2018-06-28T04:52:00.467Z,4396
2018-06-28T04:53:10.543Z,4428
2018-06-28T04:54:20.677Z,4464
2018-06-28T04:55:30.737Z,4480
2018-06-28T04:56:40.830Z,4512
2018-06-28T04:57:50.908Z,4508
2018-06-28T04:59:00.779Z,4496
2018-06-28T05:00:10.356Z,4476
2018-06-28T05:01:20.610Z,4464
2018-06-28T05:02:30.793Z,4456
2018-06-28T05:03:40.855Z,4420
2018-06-28T05:04:50.394Z,4420
2018-06-28T05:06:00.534Z,4440
2018-06-28T05:07:09.981Z,4436
2018-06-28T05:08:19.855Z,4380
2018-06-28T05:09:29.971Z,4316
2018-06-28T05:10:39.807Z,4304
2018-06-28T05:11:49.653Z,4344
2018-06-28T05:12:59.743Z,4364
2018-06-28T05:14:09.563Z,4416
2018-06-28T05:15:19.635Z,4428
2018-06-28T05:16:29.178Z,4432
2018-06-28T05:17:38.738Z,4428
2018-06-28T05:18:48.547Z,4420
2018-06-28T05:19:58.624Z,4384
2018-06-28T05:21:08.705Z,4328
2018-06-28T05:22:18.765Z,4308
2018-06-28T05:23:28.551Z,4280
2018-06-28T05:24:38.632Z,4256
2018-06-28T05:25:48.801Z,4268
2018-06-28T05:26:58.900Z,4284
2018-06-28T05:28:08.690Z,4336
2018-06-28T05:29:19.128Z,4392
2018-06-28T05:30:29.223Z,4452
2018-06-28T05:31:38.483Z,4480
2018-06-28T05:32:48.274Z,4532
2018-06-28T05:33:58.091Z,4636
2018-06-28T05:35:07.958Z,4772
2018-06-28T05:36:18.020Z,4968
2018-06-28T05:37:28.097Z,5064
2018-06-28T05:38:37.623Z,5204
2018-06-28T05:39:47.426Z,5348
2018-06-28T05:40:57.543Z,5640
2018-06-28T05:42:07.342Z,5844
2018-06-28T05:43:17.433Z,6140
2018-06-28T05:44:27.242Z,6444
2018-06-28T05:45:37.067Z,6720
2018-06-28T05:46:46.927Z,7028
2018-06-28T05:47:57.002Z,7288
2018-06-28T05:49:07.086Z,7596
2018-06-28T05:50:17.180Z,7788
2018-06-28T05:51:27.261Z,7808
2018-06-28T05:52:37.394Z,7796
2018-06-28T05:53:46.929Z,7772
2018-06-28T05:54:56.996Z,7756
2018-06-28T05:56:06.839Z,7892
2018-06-28T05:57:16.917Z,7920
2018-06-28T05:58:27.049Z,7892
2018-06-28T05:59:36.851Z,7804
2018-06-28T06:00:46.654Z,7784
2018-06-28T06:01:56.727Z,7784
2018-06-28T06:03:06.513Z,7808
2018-06-28T06:04:16.640Z,7880
2018-06-28T06:05:26.727Z,7972
2018-06-28T06:06:36.276Z,8052
2018-06-28T06:07:46.406Z,8140
2018-06-28T06:08:56.486Z,8228
2018-06-28T06:10:06.623Z,8296
2018-06-28T06:11:16.716Z,8340
2018-06-28T06:12:26.781Z,8348
2018-06-28T06:13:36.597Z,8344
2018-06-28T06:14:46.679Z,8356
2018-06-28T06:15:56.577Z,8332
2018-06-28T06:17:06.654Z,8308
2018-06-28T06:18:16.709Z,8268
2018-06-28T06:19:26.514Z,8272
2018-06-28T06:20:36.340Z,8344
2018-06-28T06:21:46.209Z,8480
2018-06-28T06:22:56.289Z,8620
2018-06-28T06:24:06.306Z,8736
2018-06-28T06:25:16.441Z,8772
2018-06-28T06:26:26.249Z,8680
2018-06-28T06:27:36.120Z,8524
2018-06-28T06:28:46.187Z,8352
2018-06-28T06:29:56.262Z,8288
2018-06-28T06:31:05.272Z,8372
2018-06-28T06:32:15.077Z,8552
2018-06-28T06:33:24.653Z,8764
2018-06-28T06:34:34.856Z,8876
2018-06-28T06:35:44.786Z,9036
2018-06-28T06:36:55.022Z,9364
2018-06-28T06:38:24.592Z,9736
2018-06-28T06:39:34.484Z,9904
2018-06-28T06:40:44.550Z,10000
2018-06-28T06:41:54.634Z,10088
2018-06-28T06:43:04.438Z,10100
2018-06-28T06:44:14.284Z,10088
2018-06-28T06:45:24.093Z,10088
2018-06-28T06:46:33.895Z,10076
2018-06-28T06:47:43.697Z,10024
2018-06-28T06:48:53.726Z,10040
2018-06-28T06:50:03.853Z,10084
2018-06-28T06:51:13.934Z,10184
2018-06-28T06:52:24.012Z,10372
2018-06-28T06:53:33.539Z,10564
2018-06-28T06:54:43.645Z,10700
2018-06-28T06:55:52.958Z,10836
2018-06-28T06:57:02.759Z,10836
2018-06-28T06:58:12.867Z,10732
2018-06-28T06:59:22.942Z,10520
2018-06-28T07:00:32.813Z,10060
2018-06-28T07:01:42.943Z,9684
2018-06-28T07:02:53.021Z,9448
2018-06-28T07:04:02.823Z,9152
2018-06-28T07:05:12.642Z,8776
2018-06-28T07:06:22.433Z,8648
2018-06-28T07:07:32.581Z,8636
2018-06-28T07:08:42.664Z,8628
2018-06-28T07:09:52.757Z,8716
2018-06-28T07:11:02.835Z,8708
2018-06-28T07:12:12.669Z,8748
2018-06-28T07:13:22.813Z,8860
2018-06-28T07:14:32.896Z,9012
2018-06-28T07:15:42.988Z,9140
2018-06-28T07:16:52.537Z,9620
2018-06-28T07:18:02.625Z,9992
2018-06-28T07:19:12.489Z,10280
2018-06-28T07:20:22.581Z,10288
2018-06-28T07:21:32.117Z,10080
2018-06-28T07:22:41.947Z,9952
2018-06-28T07:23:51.780Z,9888
2018-06-28T07:25:01.355Z,9644
2018-06-28T07:26:11.169Z,9284
2018-06-28T07:27:20.711Z,9104
2018-06-28T07:28:30.804Z,9096
2018-06-28T07:29:40.420Z,9000
2018-06-28T07:30:49.736Z,9116
2018-06-28T07:31:59.540Z,9120
2018-06-28T07:33:09.497Z,9080
2018-06-28T07:34:20.280Z,9152
2018-06-28T07:35:30.366Z,9372
2018-06-28T07:36:40.209Z,9580
2018-06-28T07:37:50.308Z,10216
2018-06-28T07:39:00.141Z,10180
2018-06-28T07:40:09.943Z,10456
2018-06-28T07:41:20.062Z,10460
2018-06-28T07:42:30.086Z,10488
2018-06-28T07:43:39.961Z,10176
2018-06-28T07:44:50.039Z,9880
2018-06-28T07:46:00.104Z,9684
2018-06-28T07:47:09.648Z,9688
2018-06-28T07:48:19.842Z,9440
2018-06-28T07:49:29.661Z,8976
2018-06-28T07:50:39.750Z,8596
2018-06-28T07:51:49.305Z,8484
2018-06-28T07:52:59.119Z,8256
2018-06-28T07:54:09.272Z,8144
2018-06-28T07:55:18.996Z,8064
2018-06-28T07:56:29.123Z,8096
2018-06-28T07:57:38.656Z,8080
2018-06-28T07:58:48.453Z,8024
2018-06-28T07:59:58.028Z,8228
2018-06-28T08:01:08.120Z,8448
2018-06-28T08:02:17.925Z,8524
2018-06-28T08:03:27.998Z,8272
2018-06-28T08:04:38.094Z,7908
2018-06-28T08:05:48.242Z,7800
2018-06-28T08:06:58.311Z,7700
2018-06-28T08:08:08.123Z,7864
2018-06-28T08:09:18.213Z,7856
2018-06-28T08:10:28.280Z,7912
2018-06-28T08:11:38.420Z,8160
2018-06-28T08:12:48.494Z,8572
2018-06-28T08:13:58.021Z,8692
2018-06-28T08:15:07.824Z,8920
2018-06-28T08:16:17.647Z,9100
2018-06-28T08:17:27.513Z,8808
2018-06-28T08:18:37.324Z,8764
2018-06-28T08:19:47.427Z,9240
2018-06-28T08:20:57.278Z,9168
2018-06-28T08:22:07.090Z,9432
2018-06-28T08:23:17.242Z,9648
2018-06-28T08:24:27.321Z,10372
2018-06-28T08:25:37.103Z,10792
2018-06-28T08:26:47.204Z,11080
2018-06-28T08:27:57.292Z,11252
2018-06-28T08:29:07.145Z,12068
2018-06-28T08:30:17.219Z,12644
2018-06-28T08:31:27.339Z,12872
2018-06-28T08:32:37.432Z,13460
2018-06-28T08:33:46.982Z,14276
2018-06-28T08:34:56.832Z,15024
2018-06-28T08:36:06.976Z,14668
2018-06-28T08:37:17.119Z,14964
2018-06-28T08:38:26.911Z,15584
2018-06-28T08:39:36.733Z,15648
2018-06-28T08:40:46.606Z,15648
2018-06-28T08:41:56.689Z,15296
2018-06-28T08:43:06.242Z,14204
2018-06-28T08:44:16.355Z,13072
2018-06-28T08:45:25.895Z,11680
2018-06-28T08:46:35.481Z,11464
2018-06-28T08:47:45.036Z,11176
2018-06-28T08:48:54.583Z,11316
2018-06-28T08:50:04.463Z,10924
2018-06-28T08:51:14.288Z,9908
2018-06-28T08:52:24.162Z,8944
2018-06-28T08:53:33.965Z,8900
2018-06-28T08:54:43.768Z,9416
2018-06-28T08:55:53.035Z,9692
2018-06-28T08:57:02.838Z,9956
2018-06-28T08:58:13.025Z,10268
2018-06-28T08:59:22.834Z,10768
2018-06-28T09:00:32.930Z,11420
2018-06-28T09:01:42.764Z,12024
2018-06-28T09:02:52.641Z,12920
2018-06-28T09:04:02.904Z,13944
2018-06-28T09:05:12.986Z,14768
2018-06-28T09:06:23.092Z,15292
2018-06-28T09:07:32.907Z,15736
2018-06-28T09:08:42.711Z,16864
2018-06-28T09:09:52.574Z,17568
2018-06-28T09:11:02.653Z,17312
2018-06-28T09:12:12.496Z,16608
2018-06-28T09:13:22.577Z,15808
2018-06-28T09:14:32.664Z,14272
2018-06-28T09:15:42.518Z,13812
2018-06-28T09:16:52.338Z,14448
2018-06-28T09:18:02.440Z,15508
2018-06-28T09:19:12.541Z,15476
2018-06-28T09:20:22.671Z,15056
2018-06-28T09:21:32.866Z,13580
2018-06-28T09:22:43.037Z,12568
2018-06-28T09:23:52.499Z,12180
2018-06-28T09:25:02.323Z,12744
2018-06-28T09:26:12.400Z,13288
2018-06-28T09:27:22.254Z,14328
2018-06-28T09:28:31.782Z,14956
2018-06-28T09:29:41.868Z,15884
2018-06-28T09:30:51.407Z,15944
2018-06-28T09:32:00.668Z,16544
2018-06-28T09:33:10.796Z,16012
2018-06-28T09:34:20.609Z,15904
2018-06-28T09:35:30.411Z,16672
2018-06-28T09:36:39.941Z,17472
2018-06-28T09:37:49.484Z,17536
2018-06-28T09:38:59.343Z,17888
2018-06-28T09:40:08.885Z,15872
2018-06-28T09:41:18.440Z,14368
2018-06-28T09:42:28.238Z,12716
2018-06-28T09:43:37.504Z,12312
2018-06-28T09:44:47.639Z,11972
2018-06-28T09:45:56.917Z,11892
2018-06-28T09:47:07.001Z,11156
2018-06-28T09:48:16.260Z,10324
2018-06-28T09:49:26.074Z,9836
2018-06-28T09:50:35.922Z,9280
2018-06-28T09:51:46.023Z,8472
2018-06-28T09:52:55.847Z,7912
2018-06-28T09:54:05.123Z,7600
2018-06-28T09:55:15.214Z,7456
2018-06-28T09:56:25.356Z,7700
2018-06-28T09:57:35.450Z,8060
2018-06-28T09:58:44.993Z,9472
2018-06-28T09:59:55.071Z,10804
2018-06-28T10:01:04.602Z,11740
2018-06-28T10:02:14.739Z,12644
2018-06-28T10:03:24.823Z,14296
2018-06-28T10:04:34.362Z,15556
2018-06-28T10:05:44.169Z,15480
2018-06-28T10:06:54.555Z,15176
2018-06-28T10:08:04.903Z,15040
2018-06-28T10:09:14.986Z,15172
2018-06-28T10:10:25.073Z,16048
2018-06-28T10:11:34.335Z,17120
2018-06-28T10:12:44.131Z,17888
2018-06-28T10:13:54.052Z,18400
2018-06-28T10:15:03.873Z,16576
2018-06-28T10:16:13.150Z,15648
2018-06-28T10:17:22.957Z,14128
2018-06-28T10:18:32.472Z,14148
2018-06-28T10:19:42.337Z,13436
2018-06-28T10:20:52.137Z,14180
2018-06-28T10:22:02.209Z,15720
2018-06-28T10:23:12.283Z,17056
2018-06-28T10:24:22.343Z,17344
2018-06-28T10:25:32.494Z,18464
2018-06-28T10:26:42.027Z,16960
2018-06-28T10:27:51.575Z,15220
2018-06-28T10:29:01.672Z,14708
2018-06-28T10:30:11.500Z,15136
2018-06-28T10:31:21.376Z,14592
2018-06-28T10:32:31.471Z,13820
2018-06-28T10:33:41.549Z,14600
2018-06-28T10:34:51.636Z,15196
2018-06-28T10:36:01.177Z,15244
2018-06-28T10:37:10.774Z,16320
2018-06-28T10:38:20.586Z,16992
2018-06-28T10:39:30.385Z,17824
2018-06-28T10:40:39.920Z,18592
2018-06-28T10:41:49.465Z,19008
2018-06-28T10:42:59.310Z,19456
2018-06-28T10:44:09.121Z,19776
2018-06-28T10:45:19.205Z,19168
2018-06-28T10:46:29.024Z,20064
2018-06-28T10:47:39.039Z,21472
2018-06-28T10:48:49.171Z,22208
2018-06-28T10:49:59.258Z,22432
2018-06-28T10:51:08.803Z,22752
2018-06-28T10:52:18.862Z,21760
2018-06-28T10:53:28.945Z,19840
2018-06-28T10:54:38.803Z,20448
2018-06-28T10:55:48.637Z,22336
2018-06-28T10:56:58.719Z,23232
2018-06-28T10:58:08.535Z,23296
2018-06-28T10:59:18.076Z,23456
2018-06-28T11:00:28.207Z,23808
2018-06-28T11:01:38.382Z,23328
2018-06-28T11:02:48.215Z,22528
2018-06-28T11:03:58.036Z,21696
2018-06-28T11:05:08.117Z,20416
2018-06-28T11:06:18.266Z,18400
2018-06-28T11:07:28.178Z,17536
2018-06-28T11:08:37.872Z,16288
2018-06-28T11:09:47.734Z,15464
2018-06-28T11:10:57.545Z,14484
2018-06-28T11:12:07.704Z,13648
2018-06-28T11:13:17.804Z,11872
2018-06-28T11:14:27.606Z,10744
2018-06-28T11:15:37.527Z,10076
2018-06-28T11:16:47.473Z,9756
2018-06-28T11:17:57.611Z,10112
2018-06-28T11:19:07.726Z,10624
2018-06-28T11:20:17.545Z,11560
2018-06-28T11:21:27.097Z,12068
2018-06-28T11:22:37.159Z,12284
2018-06-28T11:23:47.300Z,12612
2018-06-28T11:24:57.365Z,12760
2018-06-28T11:26:07.167Z,13288
2018-06-28T11:27:17.240Z,13872
2018-06-28T11:28:27.318Z,14516
2018-06-28T11:29:37.176Z,15344
2018-06-28T11:30:46.982Z,15688
2018-06-28T11:31:56.804Z,16960
2018-06-28T11:33:06.602Z,17408
2018-06-28T11:34:16.652Z,18496
2018-06-28T11:35:26.270Z,19424
2018-06-28T11:36:36.339Z,19392
2018-06-28T11:37:46.433Z,20192
2018-06-28T11:38:56.535Z,19680
2018-06-28T11:40:06.331Z,20384
2018-06-28T11:41:16.475Z,21952
2018-06-28T11:42:26.555Z,21376
2018-06-28T11:43:36.625Z,20192
2018-06-28T11:44:46.683Z,21152
2018-06-28T11:45:56.767Z,22848
2018-06-28T11:47:06.637Z,45376
2018-06-28T11:48:16.748Z,81376
2018-06-28T11:49:26.553Z,71232
2018-06-28T11:50:36.361Z,26560
2018-06-28T11:51:46.422Z,80640
2018-06-28T11:52:56.554Z,68064
2018-06-28T11:54:06.356Z,84288
2018-06-28T11:55:16.156Z,79424
2018-06-28T11:56:25.973Z,72352
2018-06-28T11:57:35.780Z,16640
2018-06-28T11:58:45.639Z,13640
2018-06-28T11:59:55.453Z,13744
2018-06-28T12:01:05.598Z,13012
2018-06-28T12:02:14.865Z,12852
2018-06-28T12:03:24.682Z,12452
2018-06-28T12:04:34.268Z,11560
2018-06-28T12:05:44.447Z,10980
2018-06-28T12:06:53.988Z,10808
2018-06-28T12:08:04.087Z,10804
2018-06-28T12:09:13.895Z,10644
2018-06-28T12:10:23.498Z,10680
2018-06-28T12:11:33.581Z,10952
2018-06-28T12:12:43.677Z,11672
2018-06-28T12:13:53.495Z,12660
2018-06-28T12:15:03.313Z,13300
2018-06-28T12:16:12.896Z,13984
2018-06-28T12:17:22.968Z,14996
2018-06-28T12:18:33.049Z,16004
2018-06-28T12:19:42.865Z,16896
2018-06-28T12:20:52.677Z,18016
2018-06-28T12:22:02.816Z,18400
2018-06-28T12:23:12.647Z,18656
2018-06-28T12:24:22.462Z,17984
2018-06-28T12:25:32.258Z,17440
2018-06-28T12:26:42.322Z,15820
2018-06-28T12:27:52.179Z,15268
2018-06-28T12:29:01.978Z,14984
2018-06-28T12:30:11.832Z,14984
2018-06-28T12:31:21.896Z,14716
2018-06-28T12:32:31.698Z,16704
2018-06-28T12:33:41.010Z,17888
2018-06-28T12:34:50.827Z,17952
2018-06-28T12:36:00.352Z,17984
2018-06-28T12:37:10.157Z,17600
2018-06-28T12:38:19.964Z,15444
2018-06-28T12:39:29.835Z,15340
2018-06-28T12:40:39.402Z,14724
2018-06-28T12:41:48.942Z,15064
2018-06-28T12:42:58.766Z,14936
2018-06-28T12:44:08.571Z,15860
2018-06-28T12:45:18.697Z,18432
2018-06-28T12:46:28.354Z,19360
2018-06-28T12:47:38.500Z,20288
2018-06-28T12:48:48.586Z,23616
2018-06-28T12:49:58.412Z,22400
2018-06-28T12:51:07.733Z,25152
2018-06-28T12:52:17.267Z,35424
2018-06-28T12:53:26.798Z,107392
2018-06-28T12:54:36.614Z,25952
2018-06-28T12:55:46.434Z,106656
2018-06-28T12:56:56.300Z,61792
2018-06-28T12:58:06.378Z,25376
2018-06-28T12:59:15.908Z,32992
2018-06-28T13:00:26.002Z,20800
2018-06-28T13:01:35.567Z,38048
2018-06-28T13:02:45.721Z,38272
2018-06-28T13:03:55.797Z,17376
2018-06-28T13:05:05.614Z,15580
2018-06-28T13:06:15.704Z,15524
2018-06-28T13:07:25.826Z,14328
2018-06-28T13:08:35.694Z,14288
2018-06-28T13:09:45.779Z,14120
2018-06-28T13:10:55.315Z,13936
2018-06-28T13:12:05.404Z,12560
2018-06-28T13:13:15.633Z,10212
2018-06-28T13:14:25.761Z,9860
2018-06-28T13:15:35.312Z,9152
2018-06-28T13:16:45.403Z,8856
2018-06-28T13:17:55.205Z,8116
2018-06-28T13:19:05.025Z,7708
2018-06-28T13:20:15.740Z,7616
2018-06-28T13:21:25.875Z,7784
2018-06-28T13:22:35.694Z,8096
2018-06-28T13:23:45.781Z,8436
2018-06-28T13:24:55.929Z,8532
2018-06-28T13:26:05.799Z,8244
2018-06-28T13:27:15.342Z,7972
2018-06-28T13:28:25.171Z,7928
2018-06-28T13:29:35.001Z,8204
2018-06-28T13:30:44.554Z,8248
2018-06-28T13:31:54.410Z,8252
2018-06-28T13:33:03.938Z,8348
2018-06-28T13:34:13.463Z,8512
2018-06-28T13:35:23.002Z,8504
2018-06-28T13:36:32.821Z,8116
2018-06-28T13:37:42.728Z,7692
2018-06-28T13:38:52.004Z,7160
2018-06-28T13:40:02.076Z,6864
2018-06-28T13:41:13.196Z,6696
2018-06-28T13:42:24.508Z,6700
2018-06-28T13:43:34.664Z,6448
2018-06-28T13:44:44.487Z,6412
2018-06-28T13:45:54.584Z,6360
2018-06-28T13:47:04.119Z,6328
2018-06-28T13:48:14.193Z,6504
2018-06-28T13:49:24.373Z,6600
2018-06-28T13:50:33.918Z,6928
2018-06-28T13:51:43.467Z,7476
2018-06-28T13:52:53.298Z,8328
2018-06-28T13:54:02.829Z,8408
2018-06-28T13:55:12.699Z,8228
2018-06-28T13:56:22.505Z,8228
2018-06-28T13:57:32.348Z,8596
2018-06-28T13:58:42.155Z,10012
2018-06-28T13:59:52.231Z,11880
2018-06-28T14:01:01.550Z,12088
2018-06-28T14:02:11.653Z,10220
2018-06-28T14:03:22.246Z,9844
2018-06-28T14:04:32.432Z,10968
2018-06-28T14:05:42.243Z,11428
2018-06-28T14:06:52.400Z,12056
2018-06-28T14:08:02.501Z,11704
2018-06-28T14:09:12.330Z,12652
2018-06-28T14:10:21.942Z,13780
2018-06-28T14:11:32.018Z,13100
2018-06-28T14:12:42.150Z,10396
2018-06-28T14:13:51.680Z,9416
2018-06-28T14:15:01.498Z,9968
2018-06-28T14:16:11.296Z,10976
2018-06-28T14:17:21.095Z,14392
2018-06-28T14:18:31.235Z,19424
2018-06-28T14:19:41.374Z,26336
2018-06-28T14:20:51.189Z,16060
2018-06-28T14:22:01.308Z,16212
2018-06-28T14:23:11.248Z,30048
2018-06-28T14:24:21.106Z,18784
2018-06-28T14:25:31.182Z,22016
2018-06-28T14:26:41.271Z,24768
2018-06-28T14:27:51.370Z,67968
2018-06-28T14:29:01.217Z,101536
2018-06-28T14:30:10.272Z,74784
2018-06-28T14:31:20.418Z,62368
2018-06-28T14:32:30.219Z,41344
2018-06-28T14:33:40.330Z,106528
2018-06-28T14:34:49.924Z,104224
2018-06-28T14:35:59.790Z,64928
2018-06-28T14:37:09.338Z,55552
2018-06-28T14:38:19.481Z,29696
2018-06-28T14:39:29.934Z,37760
2018-06-28T14:40:40.159Z,52384
2018-06-28T14:41:50.656Z,20544
2018-06-28T14:43:00.470Z,19392
2018-06-28T14:44:10.017Z,24800
2018-06-28T14:45:19.820Z,29728
2018-06-28T14:46:29.647Z,93120
2018-06-28T14:47:39.501Z,91200
2018-06-28T14:48:49.572Z,86304
2018-06-28T14:49:59.374Z,90208
2018-06-28T14:51:08.647Z,87520
2018-06-28T14:52:18.215Z,82272
2018-06-28T14:53:27.802Z,84576
2018-06-28T14:54:37.367Z,84064
2018-06-28T14:55:47.457Z,76480
2018-06-28T14:56:57.693Z,74592
2018-06-28T14:58:07.514Z,80096
2018-06-28T14:59:17.640Z,81152
2018-06-28T15:00:27.473Z,88928
2018-06-28T15:01:37.018Z,105216
2018-06-28T15:02:46.834Z,90336
2018-06-28T15:03:56.651Z,47168
2018-06-28T15:05:06.513Z,59616
2018-06-28T15:06:16.344Z,50432
2018-06-28T15:07:26.146Z,46720
2018-06-28T15:08:36.221Z,44864
2018-06-28T15:09:46.682Z,45920
2018-06-28T15:10:56.832Z,46560
2018-06-28T15:12:06.650Z,47264
2018-06-28T15:13:16.769Z,47776
2018-06-28T15:14:26.595Z,49856
2018-06-28T15:15:36.719Z,53696
2018-06-28T15:16:46.854Z,57152
2018-06-28T15:17:56.684Z,65120
2018-06-28T15:19:06.516Z,72384
2018-06-28T15:20:15.793Z,72032
2018-06-28T15:21:26.345Z,70592
2018-06-28T15:22:36.305Z,69920
2018-06-28T15:23:46.386Z,72736
2018-06-28T15:24:56.195Z,71968
2018-06-28T15:26:06.277Z,67584
2018-06-28T15:27:16.140Z,71712
2018-06-28T15:28:26.043Z,80896
2018-06-28T15:29:35.860Z,81952